createdAt,value
2023-02-04T00:01:15.693Z,96058.06
2023-02-04T00:03:42.078Z,96060.47
2023-02-04T00:06:08.483Z,96057.13
2023-02-04T00:08:36.821Z,96059.41
2023-02-04T00:11:07.087Z,96087.97
2023-02-04T00:13:33.457Z,96053.25
2023-02-04T00:15:59.832Z,96055.00
2023-02-04T00:18:26.286Z,96042.06
2023-02-04T00:20:52.727Z,96036.72
2023-02-04T00:23:19.127Z,96057.00
2023-02-04T00:25:45.522Z,96034.16
2023-02-04T00:28:12.622Z,96031.50
2023-02-04T00:30:38.996Z,96042.44
2023-02-04T00:33:05.371Z,96053.50
2023-02-04T00:35:31.855Z,96044.31
2023-02-04T00:37:58.214Z,96053.09
2023-02-04T00:40:25.510Z,96060.03
2023-02-04T00:42:51.888Z,96071.53
2023-02-04T00:45:19.027Z,96064.06
2023-02-04T00:47:45.422Z,96062.69
2023-02-04T00:50:11.959Z,96048.84
2023-02-04T00:52:38.447Z,96050.16
2023-02-04T00:55:07.216Z,96050.44
2023-02-04T00:57:33.694Z,96070.06
2023-02-04T01:00:00.142Z,96059.09
2023-02-04T01:02:27.226Z,96089.28
2023-02-04T01:04:53.685Z,96080.06
2023-02-04T01:07:20.182Z,96074.97
2023-02-04T01:09:46.573Z,96077.25
2023-02-04T01:12:12.957Z,96083.06
2023-02-04T01:14:39.492Z,96076.53
2023-02-04T01:17:05.993Z,96083.75
2023-02-04T01:19:33.085Z,96098.03
2023-02-04T01:21:59.465Z,96106.28
2023-02-04T01:24:25.853Z,96095.31
2023-02-04T01:27:10.697Z,96096.41
2023-02-04T01:29:37.059Z,96098.66
2023-02-04T01:32:03.648Z,96108.25
2023-02-04T01:34:31.079Z,96129.44
2023-02-04T01:36:58.153Z,96090.91
2023-02-04T01:39:24.521Z,96087.34
2023-02-04T01:41:51.008Z,96092.16
2023-02-04T01:44:17.491Z,96086.16
2023-02-04T01:46:44.005Z,96107.75
2023-02-04T01:49:11.128Z,96112.06
2023-02-04T01:51:38.752Z,96124.44
2023-02-04T01:54:09.234Z,96123.63
2023-02-04T01:56:35.666Z,96124.81
2023-02-04T01:59:02.119Z,96121.25
2023-02-04T02:01:36.811Z,96119.50
2023-02-04T02:04:03.654Z,96117.03
2023-02-04T02:06:30.224Z,96121.06
2023-02-04T02:08:57.642Z,96134.03
2023-02-04T02:11:25.267Z,96129.50
2023-02-04T02:13:52.881Z,96131.66
2023-02-04T02:16:19.344Z,96134.75
2023-02-04T02:18:46.084Z,96137.81
2023-02-04T02:21:14.249Z,96135.25
2023-02-04T02:23:47.192Z,96135.94
2023-02-04T02:26:14.816Z,96135.03
2023-02-04T02:28:41.703Z,96134.13
2023-02-04T02:31:08.779Z,96136.34
2023-02-04T02:33:36.362Z,96149.31
2023-02-04T02:36:03.114Z,96162.66
2023-02-04T02:38:29.535Z,96164.03
2023-02-04T02:40:56.640Z,96178.06
2023-02-04T02:43:26.500Z,96170.19
2023-02-04T02:45:55.444Z,96166.97
2023-02-04T02:48:22.356Z,96166.19
2023-02-04T02:50:48.957Z,96165.00
2023-02-04T02:53:18.057Z,96155.63
2023-02-04T02:55:46.009Z,96159.50
2023-02-04T02:58:21.178Z,96179.94
2023-02-04T03:00:47.554Z,96177.38
2023-02-04T03:03:21.483Z,96178.63
2023-02-04T03:05:51.917Z,96199.19
2023-02-04T03:08:19.454Z,96188.34
2023-02-04T03:10:46.350Z,96192.78
2023-02-04T03:13:14.725Z,96187.03
2023-02-04T03:15:44.421Z,96195.31
2023-02-04T03:18:11.778Z,96221.91
2023-02-04T03:20:40.228Z,96196.25
2023-02-04T03:23:06.647Z,96205.22
2023-02-04T03:25:33.731Z,96204.69
2023-02-04T03:28:00.379Z,96202.94
2023-02-04T03:30:27.118Z,96220.97
2023-02-04T03:32:54.951Z,96215.47
2023-02-04T03:35:21.411Z,96238.31
2023-02-04T03:37:47.764Z,96231.50
2023-02-04T03:40:14.294Z,96227.31
2023-02-04T03:42:40.699Z,96243.34
2023-02-04T03:45:07.979Z,96240.41
2023-02-04T03:47:34.450Z,96240.28
2023-02-04T03:50:01.642Z,96240.53
2023-02-04T03:52:28.060Z,96248.53
2023-02-04T03:54:54.510Z,96262.16
2023-02-04T03:57:21.007Z,96264.16
2023-02-04T03:59:47.368Z,96277.22
2023-02-04T04:02:13.841Z,96276.44
2023-02-04T04:04:40.270Z,96283.91
2023-02-04T04:07:07.514Z,96291.91
2023-02-04T04:09:33.894Z,96297.59
2023-02-04T04:12:00.262Z,96291.41
2023-02-04T04:14:26.591Z,96294.75
2023-02-04T04:16:53.000Z,96300.31
2023-02-04T04:19:19.368Z,96309.03
2023-02-04T04:21:45.775Z,96309.53
2023-02-04T04:24:12.764Z,96310.38
2023-02-04T04:26:39.183Z,96318.78
2023-02-04T04:29:05.524Z,96320.88
2023-02-04T04:31:31.989Z,96317.66
2023-02-04T04:33:58.427Z,96318.91
2023-02-04T04:36:24.900Z,96321.91
2023-02-04T04:38:51.309Z,96320.81
2023-02-04T04:41:18.341Z,96327.16
2023-02-04T04:43:44.752Z,96326.00
2023-02-04T04:46:11.111Z,96333.75
2023-02-04T04:48:37.851Z,96337.31
2023-02-04T04:51:04.449Z,96339.19
2023-02-04T04:53:30.841Z,96348.41
2023-02-04T04:55:57.191Z,96352.91
2023-02-04T04:58:24.219Z,96348.88
2023-02-04T05:00:50.772Z,96353.59
2023-02-04T05:03:17.220Z,96352.09
2023-02-04T05:05:43.620Z,96364.53
2023-02-04T05:08:12.614Z,96365.34
2023-02-04T05:10:39.042Z,96373.97
2023-02-04T05:13:05.460Z,96378.69
2023-02-04T05:15:32.473Z,96382.63
2023-02-04T05:17:58.859Z,96382.84
2023-02-04T05:20:25.337Z,96380.31
2023-02-04T05:22:52.001Z,96382.50
2023-02-04T05:25:18.464Z,96384.44
2023-02-04T05:27:45.132Z,96380.78
2023-02-04T05:30:12.602Z,96389.06
2023-02-04T05:32:39.890Z,96374.56
2023-02-04T05:35:06.792Z,96393.78
2023-02-04T05:37:33.322Z,96388.25
2023-02-04T05:39:59.711Z,96388.41
2023-02-04T05:42:26.098Z,96400.00
2023-02-04T05:44:52.469Z,96396.00
2023-02-04T05:47:19.765Z,96398.63
2023-02-04T05:49:46.856Z,96410.94
2023-02-04T05:52:13.266Z,96411.28
2023-02-04T05:54:39.664Z,96422.34
2023-02-04T05:57:06.035Z,96423.84
2023-02-04T05:59:32.425Z,96430.63
2023-02-04T06:01:58.819Z,96426.25
2023-02-04T06:04:25.271Z,96432.59
2023-02-04T06:06:52.379Z,96434.91
2023-02-04T06:09:18.768Z,96439.47
2023-02-04T06:11:45.114Z,96450.53
2023-02-04T06:14:11.526Z,96449.38
2023-02-04T06:16:38.002Z,96457.69
2023-02-04T06:19:04.447Z,96463.41
2023-02-04T06:21:30.817Z,96470.91
2023-02-04T06:23:57.862Z,96467.44
2023-02-04T06:26:24.257Z,96475.97
2023-02-04T06:28:50.643Z,96472.41
2023-02-04T06:31:17.140Z,96485.53
2023-02-04T06:33:43.594Z,96487.13
2023-02-04T06:36:10.018Z,96491.75
2023-02-04T06:38:36.397Z,96494.59
2023-02-04T06:41:03.537Z,96495.53
2023-02-04T06:43:29.981Z,96496.81
2023-02-04T06:45:56.442Z,96496.91
2023-02-04T06:48:22.889Z,96495.31
2023-02-04T06:50:49.278Z,96496.91
2023-02-04T06:53:15.672Z,96501.97
2023-02-04T06:55:42.049Z,96508.56
2023-02-04T06:58:09.231Z,96492.78
2023-02-04T07:00:35.686Z,96506.59
2023-02-04T07:03:02.136Z,96513.06
2023-02-04T07:05:28.535Z,96519.97
2023-02-04T07:07:54.936Z,96520.00
2023-02-04T07:10:21.363Z,96522.88
2023-02-04T07:12:47.766Z,96528.97
2023-02-04T07:15:14.953Z,96526.13
2023-02-04T07:17:41.343Z,96541.00
2023-02-04T07:20:09.216Z,96552.66
2023-02-04T07:22:35.602Z,96550.19
2023-02-04T07:25:02.019Z,96555.47
2023-02-04T07:27:28.437Z,96571.25
2023-02-04T07:29:54.847Z,96569.97
2023-02-04T07:32:21.906Z,96567.34
2023-02-04T07:34:48.274Z,96575.22
2023-02-04T07:37:14.735Z,96587.69
2023-02-04T07:39:41.227Z,96592.41
2023-02-04T07:42:07.886Z,96590.03
2023-02-04T07:44:43.122Z,96583.81
2023-02-04T07:47:09.910Z,96598.41
2023-02-04T07:49:36.990Z,96603.16
2023-02-04T07:52:03.542Z,96609.72
2023-02-04T07:54:29.916Z,96610.53
2023-02-04T07:56:56.285Z,96607.69
2023-02-04T07:59:22.706Z,96598.81
2023-02-04T08:01:49.338Z,96608.28
2023-02-04T08:04:15.721Z,96602.63
2023-02-04T08:06:43.819Z,96605.31
2023-02-04T08:09:10.243Z,96586.28
2023-02-04T08:11:36.644Z,96600.66
2023-02-04T08:14:03.035Z,96615.78
2023-02-04T08:16:29.407Z,96608.06
2023-02-04T08:18:55.802Z,96604.47
2023-02-04T08:21:22.171Z,96610.94
2023-02-04T08:23:49.166Z,96620.28
2023-02-04T08:26:15.569Z,96626.63
2023-02-04T08:28:41.949Z,96635.38
2023-02-04T08:31:11.098Z,96611.16
2023-02-04T08:33:37.854Z,96634.94
2023-02-04T08:36:05.127Z,96637.69
2023-02-04T08:38:31.637Z,96643.78
2023-02-04T08:40:59.229Z,96650.03
2023-02-04T08:43:25.658Z,96651.41
2023-02-04T08:45:52.115Z,96656.34
2023-02-04T08:48:18.550Z,96657.72
2023-02-04T08:50:44.993Z,96659.00
2023-02-04T08:53:11.373Z,96660.16
2023-02-04T08:55:37.825Z,96654.97
2023-02-04T08:58:04.926Z,96658.31
2023-02-04T09:00:33.004Z,96661.06
2023-02-04T09:02:59.557Z,96663.00
2023-02-04T09:05:25.966Z,96662.31
2023-02-04T09:07:52.361Z,96662.75
2023-02-04T09:10:18.955Z,96671.28
2023-02-04T09:12:45.368Z,96679.28
2023-02-04T09:15:12.695Z,96678.47
2023-02-04T09:17:39.477Z,96680.31
2023-02-04T09:20:06.815Z,96680.88
2023-02-04T09:22:33.309Z,96673.44
2023-02-04T09:24:59.675Z,96702.13
2023-02-04T09:27:26.032Z,96685.50
2023-02-04T09:29:52.392Z,96688.28
2023-02-04T09:32:19.480Z,96683.56
2023-02-04T09:34:45.827Z,96692.81
2023-02-04T09:37:12.257Z,96688.53
2023-02-04T09:39:38.888Z,96700.63
2023-02-04T09:42:05.408Z,96711.41
2023-02-04T09:44:32.018Z,96712.53
2023-02-04T09:47:00.580Z,96704.66
2023-02-04T09:49:28.015Z,96714.47
2023-02-04T09:51:55.279Z,96713.09
2023-02-04T09:54:23.242Z,96713.91
2023-02-04T09:56:50.136Z,96708.00
2023-02-04T09:59:19.114Z,96724.94
2023-02-04T10:01:47.579Z,96728.75
2023-02-04T10:04:15.073Z,96714.47
2023-02-04T10:06:43.700Z,96718.06
2023-02-04T10:09:11.177Z,96719.53
2023-02-04T10:11:39.463Z,96719.88
2023-02-04T10:14:12.631Z,96712.44
2023-02-04T10:16:42.823Z,96730.25
2023-02-04T10:19:14.210Z,96733.84
2023-02-04T10:21:41.268Z,96729.91
2023-02-04T10:24:13.937Z,96722.41
2023-02-04T10:26:40.336Z,96722.81
2023-02-04T10:29:13.394Z,96727.94
2023-02-04T10:31:42.475Z,96728.28
2023-02-04T10:34:14.905Z,96715.38
2023-02-04T10:36:44.285Z,96727.13
2023-02-04T10:39:14.097Z,96720.78
2023-02-04T10:41:49.938Z,96721.38
2023-02-04T10:44:19.202Z,96706.38
2023-02-04T10:46:45.587Z,96724.44
2023-02-04T10:49:18.723Z,96720.81
2023-02-04T10:51:45.786Z,96726.31
2023-02-04T10:54:32.158Z,96718.75
2023-02-04T10:57:00.285Z,96719.69
2023-02-04T10:59:27.276Z,96718.75
2023-02-04T11:01:55.452Z,96721.91
2023-02-04T11:04:21.945Z,96728.72
2023-02-04T11:06:49.880Z,96728.03
2023-02-04T11:09:16.981Z,96732.19
2023-02-04T11:11:48.012Z,96728.41
2023-02-04T11:14:24.560Z,96723.53
2023-02-04T11:16:51.512Z,96728.78
2023-02-04T11:19:32.624Z,96724.56
2023-02-04T11:22:06.171Z,96722.16
2023-02-04T11:24:33.787Z,96719.16
2023-02-04T11:27:06.892Z,96716.03
2023-02-04T11:29:36.084Z,96717.66
2023-02-04T11:32:04.686Z,96724.88
2023-02-04T11:34:44.536Z,96728.13
2023-02-04T11:37:28.325Z,96725.34
2023-02-04T11:39:59.614Z,96733.56
2023-02-04T11:42:31.615Z,96737.44
2023-02-04T11:45:00.215Z,96729.72
2023-02-04T11:47:27.858Z,96734.75
2023-02-04T11:49:57.381Z,96738.66
2023-02-04T11:52:23.838Z,96739.22
2023-02-04T11:54:55.257Z,96742.72
2023-02-04T11:57:22.029Z,96743.41
2023-02-04T11:59:48.579Z,96738.19
2023-02-04T12:02:17.316Z,96742.44
2023-02-04T12:04:51.330Z,96737.81
2023-02-04T12:07:23.799Z,96735.75
2023-02-04T12:09:50.159Z,96736.97
2023-02-04T12:12:24.407Z,96733.25
2023-02-04T12:14:58.559Z,96735.84
2023-02-04T12:17:24.973Z,96736.66
2023-02-04T12:19:51.630Z,96744.59
2023-02-04T12:22:18.036Z,96744.72
2023-02-04T12:24:44.393Z,96742.91
2023-02-04T12:27:10.821Z,96745.66
2023-02-04T12:29:37.935Z,96741.25
2023-02-04T12:32:04.618Z,96739.69
2023-02-04T12:34:31.291Z,96735.53
2023-02-04T12:36:57.714Z,96735.28
2023-02-04T12:39:24.091Z,96735.31
2023-02-04T12:41:50.451Z,96739.59
2023-02-04T12:44:16.826Z,96742.84
2023-02-04T12:46:43.937Z,96740.44
2023-02-04T12:49:10.389Z,96741.56
2023-02-04T12:51:36.768Z,96740.88
2023-02-04T12:54:03.308Z,96723.84
2023-02-04T12:56:29.744Z,96737.13
2023-02-04T12:58:56.104Z,96736.66
2023-02-04T13:01:22.480Z,96736.38
2023-02-04T13:03:49.511Z,96727.94
2023-02-04T13:06:15.987Z,96723.69
2023-02-04T13:08:42.421Z,96724.38
2023-02-04T13:11:08.818Z,96720.47
2023-02-04T13:13:35.239Z,96730.94
2023-02-04T13:16:02.868Z,96720.88
2023-02-04T13:18:29.354Z,96734.19
2023-02-04T13:20:56.390Z,96726.72
2023-02-04T13:23:22.828Z,96734.72
2023-02-04T13:25:49.161Z,96731.44
2023-02-04T13:28:15.709Z,96739.84
2023-02-04T13:30:42.230Z,96741.38
2023-02-04T13:33:08.698Z,96739.75
2023-02-04T13:35:35.261Z,96738.47
2023-02-04T13:38:02.504Z,96743.50
2023-02-04T13:40:28.907Z,96756.63
2023-02-04T13:42:55.308Z,96754.81
2023-02-04T13:45:21.764Z,96759.09
2023-02-04T13:47:48.172Z,96765.81
2023-02-04T13:50:15.049Z,96766.06
2023-02-04T13:52:41.410Z,96764.56
2023-02-04T13:55:08.742Z,96768.03
2023-02-04T13:57:36.580Z,96778.53
2023-02-04T14:00:04.213Z,96776.84
2023-02-04T14:02:38.733Z,96783.41
2023-02-04T14:05:05.785Z,96788.56
2023-02-04T14:07:32.765Z,96790.34
2023-02-04T14:09:59.172Z,96797.13
2023-02-04T14:12:26.187Z,96793.78
2023-02-04T14:14:53.099Z,96796.66
2023-02-04T14:17:19.475Z,96801.19
2023-02-04T14:19:45.835Z,96809.16
2023-02-04T14:22:13.092Z,96803.72
2023-02-04T14:24:41.728Z,96801.06
2023-02-04T14:27:08.238Z,96808.31
2023-02-04T14:29:35.584Z,96808.31
2023-02-04T14:32:02.021Z,96804.97
2023-02-04T14:34:28.589Z,96808.44
2023-02-04T14:36:54.997Z,96821.59
2023-02-04T14:39:21.384Z,96819.66
2023-02-04T14:41:47.740Z,96812.50
2023-02-04T14:44:19.758Z,96822.41
2023-02-04T14:46:47.930Z,96819.41
2023-02-04T14:49:14.404Z,96824.47
2023-02-04T14:51:40.991Z,96827.72
2023-02-04T14:54:07.399Z,96823.91
2023-02-04T14:56:33.941Z,96824.28
2023-02-04T14:59:00.305Z,96823.09
2023-02-04T15:01:27.013Z,96829.47
2023-02-04T15:03:54.099Z,96828.31
2023-02-04T15:06:20.520Z,96829.00
2023-02-04T15:08:46.976Z,96821.72
2023-02-04T15:11:13.467Z,96830.97
2023-02-04T15:13:39.923Z,96823.09
2023-02-04T15:16:06.295Z,96824.78
2023-02-04T15:18:32.925Z,96823.50
2023-02-04T15:21:00.333Z,96825.03
2023-02-04T15:23:26.738Z,96825.16
2023-02-04T15:25:56.613Z,96830.22
2023-02-04T15:28:23.056Z,96829.31
2023-02-04T15:30:49.709Z,96839.09
2023-02-04T15:33:16.259Z,96839.78
2023-02-04T15:35:42.879Z,96848.88
2023-02-04T15:38:10.084Z,96843.47
2023-02-04T15:40:36.449Z,96855.56
2023-02-04T15:43:02.847Z,96858.00
2023-02-04T15:45:29.218Z,96850.69
2023-02-04T15:47:55.679Z,96863.06
2023-02-04T15:50:22.054Z,96857.41
2023-02-04T15:52:48.858Z,96860.41
2023-02-04T15:55:16.136Z,96868.13
2023-02-04T15:57:42.514Z,96862.38
2023-02-04T16:00:10.022Z,96868.34
2023-02-04T16:02:36.457Z,96870.16
2023-02-04T16:05:03.042Z,96879.72
2023-02-04T16:07:29.440Z,96874.53
2023-02-04T16:09:56.028Z,96875.34
2023-02-04T16:12:23.077Z,96878.03
2023-02-04T16:14:49.654Z,96878.97
2023-02-04T16:17:17.762Z,96876.41
2023-02-04T16:19:45.337Z,96883.81
2023-02-04T16:22:11.820Z,96875.59
2023-02-04T16:24:38.264Z,96881.75
2023-02-04T16:27:05.164Z,96877.41
2023-02-04T16:29:32.181Z,96894.13
2023-02-04T16:31:58.613Z,96885.94
2023-02-04T16:34:24.992Z,96889.69
2023-02-04T16:36:51.449Z,96899.69
2023-02-04T16:39:17.876Z,96905.38
2023-02-04T16:41:44.285Z,96910.94
2023-02-04T16:44:10.654Z,96911.75
2023-02-04T16:46:37.727Z,96921.81
2023-02-04T16:49:04.568Z,96924.44
2023-02-04T16:51:30.949Z,96920.63
2023-02-04T16:53:57.337Z,96919.81
2023-02-04T16:56:23.828Z,96923.06
2023-02-04T16:58:50.217Z,96925.19
2023-02-04T17:01:16.738Z,96919.31
2023-02-04T17:03:43.769Z,96931.97
2023-02-04T17:06:10.143Z,96930.88
2023-02-04T17:08:36.527Z,96934.09
2023-02-04T17:11:21.100Z,96921.44
2023-02-04T17:13:47.534Z,96942.22
2023-02-04T17:16:13.950Z,96942.50
2023-02-04T17:18:40.542Z,96941.31
2023-02-04T17:21:07.573Z,96943.16
2023-02-04T17:23:34.730Z,96942.34
2023-02-04T17:26:01.245Z,96942.53
2023-02-04T17:28:27.662Z,96942.53
2023-02-04T17:30:54.244Z,96940.00
2023-02-04T17:33:20.758Z,96945.16
2023-02-04T17:35:47.203Z,96951.94
2023-02-04T17:38:14.331Z,96934.03
2023-02-04T17:40:41.847Z,96955.28
2023-02-04T17:43:08.864Z,96943.97
2023-02-04T17:45:35.798Z,96952.38
2023-02-04T17:48:05.484Z,96953.88
2023-02-04T17:53:03.149Z,96948.81
2023-02-04T17:55:31.232Z,96951.84
2023-02-04T17:58:07.052Z,96961.97
2023-02-04T18:00:33.969Z,96965.91
2023-02-04T18:03:00.669Z,96956.28
2023-02-04T18:05:28.795Z,96963.44
2023-02-04T18:07:59.984Z,96969.81
2023-02-04T18:10:31.544Z,96976.06
2023-02-04T18:13:00.668Z,96973.91
2023-02-04T18:15:29.293Z,96986.38
2023-02-04T18:17:59.489Z,96972.81
2023-02-04T18:20:25.877Z,96970.59
2023-02-04T18:22:56.004Z,96962.56
2023-02-04T18:25:23.242Z,96967.44
2023-02-04T18:27:49.718Z,96971.97
2023-02-04T18:30:20.549Z,96959.03
2023-02-04T18:32:47.437Z,96973.13
2023-02-04T18:35:39.988Z,96970.16
2023-02-04T18:38:20.473Z,96968.53
2023-02-04T18:40:47.592Z,96969.66
2023-02-04T18:43:22.400Z,96972.69
2023-02-04T18:45:50.035Z,96974.31
2023-02-04T18:48:49.884Z,96972.91
2023-02-04T18:51:25.435Z,96960.34
2023-02-04T18:53:53.475Z,96970.16
2023-02-04T18:56:19.839Z,96973.91
2023-02-04T18:58:47.121Z,96972.91
2023-02-04T19:01:22.998Z,96977.63
2023-02-04T19:03:52.591Z,96988.47
2023-02-04T19:06:25.536Z,96980.38
2023-02-04T19:08:52.891Z,96989.16
2023-02-04T19:11:33.290Z,96984.28
2023-02-04T19:13:59.788Z,96985.44
2023-02-04T19:16:33.417Z,96986.63
2023-02-04T19:18:59.846Z,96981.56
2023-02-04T19:21:28.627Z,96977.72
2023-02-04T19:24:01.326Z,96975.69
2023-02-04T19:26:32.498Z,96978.63
2023-02-04T19:28:58.969Z,96976.91
2023-02-04T19:31:32.193Z,96974.28
2023-02-04T19:34:01.140Z,96969.25
2023-02-04T19:36:33.632Z,96964.47
2023-02-04T19:39:01.781Z,96972.66
2023-02-04T19:41:33.762Z,96975.56
2023-02-04T19:44:32.060Z,96949.53
2023-02-04T19:47:17.798Z,96972.69
2023-02-04T19:49:44.242Z,96971.19
2023-02-04T19:52:26.674Z,96970.97
2023-02-04T19:54:53.108Z,96976.47
2023-02-04T19:57:23.911Z,96969.34
2023-02-04T19:59:54.413Z,96978.72
2023-02-04T20:02:32.219Z,96971.25
2023-02-04T20:04:59.875Z,96972.41
2023-02-04T20:07:27.653Z,96974.16
2023-02-04T20:10:22.001Z,96975.84
2023-02-04T20:12:49.669Z,96974.50
2023-02-04T20:15:18.169Z,96979.19
2023-02-04T20:17:46.519Z,96969.19
2023-02-04T20:20:26.940Z,96984.31
2023-02-04T20:22:55.428Z,96979.28
2023-02-04T20:25:40.431Z,96969.34
2023-02-04T20:28:16.703Z,96985.56
2023-02-04T20:30:44.528Z,96985.84
2023-02-04T20:33:25.751Z,96989.09
2023-02-04T20:36:32.736Z,96979.72
2023-02-04T20:39:16.956Z,96986.56
2023-02-04T20:41:43.420Z,96982.91
2023-02-04T20:44:15.700Z,96989.97
2023-02-04T20:46:42.543Z,96986.09
2023-02-04T20:49:22.768Z,96986.09
2023-02-04T20:51:49.541Z,96985.28
2023-02-04T20:54:17.020Z,96992.41
2023-02-04T20:56:43.462Z,96991.94
2023-02-04T20:59:26.150Z,96994.88
2023-02-04T21:01:52.879Z,97008.56
2023-02-04T21:04:23.538Z,96990.13
2023-02-04T21:06:51.874Z,97002.06
2023-02-04T21:09:22.451Z,97011.66
2023-02-04T21:11:48.885Z,97018.72
2023-02-04T21:14:15.467Z,97022.22
2023-02-04T21:16:41.931Z,97017.22
2023-02-04T21:19:09.387Z,97025.19
2023-02-04T21:21:36.496Z,97013.88
2023-02-04T21:24:03.158Z,97011.25
2023-02-04T21:26:29.586Z,97017.84
2023-02-04T21:28:56.013Z,97019.03
2023-02-04T21:31:22.515Z,97028.28
2023-02-04T21:33:49.157Z,97026.75
2023-02-04T21:36:15.723Z,97025.16
2023-02-04T21:38:43.147Z,97037.50
2023-02-04T21:41:09.597Z,97035.19
2023-02-04T21:43:36.193Z,97025.75
2023-02-04T21:46:02.677Z,97020.84
2023-02-04T21:48:29.041Z,97025.28
2023-02-04T21:50:55.435Z,97020.22
2023-02-04T21:53:21.965Z,97031.41
2023-02-04T21:55:48.996Z,97026.66
2023-02-04T21:58:15.409Z,97025.81
2023-02-04T22:00:41.850Z,97020.41
2023-02-04T22:03:12.761Z,97027.56
2023-02-04T22:05:39.110Z,97028.31
2023-02-04T22:08:05.527Z,97026.22
2023-02-04T22:10:31.964Z,97016.50
2023-02-04T22:13:17.342Z,97026.09
2023-02-04T22:15:43.748Z,97025.63
2023-02-04T22:18:10.517Z,97025.47
2023-02-04T22:20:39.208Z,97018.88
2023-02-04T22:23:06.137Z,97030.50
2023-02-04T22:25:32.736Z,97029.44
2023-02-04T22:28:00.159Z,97038.28
2023-02-04T22:30:26.609Z,97041.97
2023-02-04T22:32:53.919Z,97047.94
2023-02-04T22:35:20.314Z,97045.31
2023-02-04T22:37:46.712Z,97045.75
2023-02-04T22:40:13.120Z,97040.88
2023-02-04T22:42:39.791Z,97040.69
2023-02-04T22:45:09.429Z,97035.94
2023-02-04T22:47:35.899Z,97027.63
2023-02-04T22:50:02.302Z,97025.47
2023-02-04T22:52:28.696Z,97031.22
2023-02-04T22:54:55.050Z,97029.06
2023-02-04T22:57:21.415Z,97023.84
2023-02-04T22:59:47.822Z,97025.53
2023-02-04T23:02:14.861Z,97030.34
2023-02-04T23:04:43.874Z,97024.13
2023-02-04T23:07:10.897Z,97023.50
2023-02-04T23:09:37.333Z,97021.47
2023-02-04T23:12:12.117Z,97016.25
2023-02-04T23:14:40.820Z,97018.88
2023-02-04T23:17:07.487Z,97010.78
2023-02-04T23:19:34.510Z,97010.31
2023-02-04T23:22:01.074Z,97017.78
2023-02-04T23:24:28.070Z,97016.25
2023-02-04T23:26:54.472Z,97019.94
2023-02-04T23:29:20.851Z,97012.28
2023-02-04T23:31:47.246Z,97017.41
2023-02-04T23:34:13.617Z,97014.63
2023-02-04T23:36:41.809Z,97010.41
2023-02-04T23:39:08.155Z,97007.06
2023-02-04T23:41:34.487Z,97012.44
2023-02-04T23:44:00.818Z,97016.63
2023-02-04T23:46:27.169Z,97035.00
2023-02-04T23:48:53.536Z,97038.06
2023-02-04T23:51:19.904Z,97022.28
2023-02-04T23:53:46.944Z,97029.34
2023-02-04T23:56:13.337Z,97029.81
2023-02-04T23:58:39.691Z,97039.44
